Decoded Metar for UIII (IRKUTSK in RUSSIA) (IATA:IKT) | Meteo·Mobile Aviation Weather
aviador You're here:

UIII Decoded Metar

IRKUTSK in RUSSIA
Report Time2018-10-23 22:00:00
UTC Time2018-10-23 22:12:42
Flight Rules lifr LIFR
Wind320° at 8 kt
W.Decomp.*RWY 30: 7.3 kt HW 3.3 kt RCW
W.Rank320° ranks 9
Current wind is below 320° avg. (9.4)
Visibility9999 m
Phenomena:Light Shower Snow
Clouds:Overcast CB 004 Hf
Ceiling400 ft
Temp00°C (ISA -12)
Dew Point00°C (100% RH)
AAT-4.9°C
QNH1016 hPa
Density Alt253 ft
Elevation1,683 ft
Report Wrong Elevation
Raw Report
UIII 232200Z 32004MPS 9999 -SHSN OVC004CB 00/00 Q1016 R30/590330
NOSIG RMK QBB120 QFE717/0956=

Extra information for UIII:More info

Metar Taf Metar & Taf Last 4 Metars F.Rules Stats Wind Profile Meteogram Temp Stats Airport Information Weather charts Add Link Nearby VenuesMetar ALERT Operation Metar Decoded Social comments